KPTS/PTS METAR and TAF weather

Enter ICAO airport designator
Station Type Date Time Source
KPTS METAR 2019/10/20 18:55 UTC NOAA

KPTS 201855Z AUTO 14011KT 10SM CLR 22/13 A2972 RMK AO2 T02160134


Station Type Date Time Source
KPTS Decoded METAR 2019/10/20 18:55 UTC NOAA

Station name not available
Oct 20, 2019 - 02:55 PM EDT / 2019.10.20 1855 UTC
Wind: from the SE (140 degrees) at 13 MPH (11 KT):0
Visibility: 10 mile(s):0
Sky conditions: clear
Temperature: 70.9 F (21.6 C)
Dew Point: 56.1 F (13.4 C)
Relative Humidity: 59%
Pressure (altimeter): 29.72 in. Hg (1006 hPa)
ob: KPTS 201855Z AUTO 14011KT 10SM CLR 22/13 A2972 RMK AO2 T02160134
cycle: 19

Station Type Date Time Source
KPTS TAF UTC NOAA

Error!

Example: see airport list